sensor_id;sensor_type;location;lat;lon;timestamp;pressure;altitude;pressure_sealevel;temperature;humidity
77003;BME280;65939;50.060;14.288;2023-03-31T00:00:18;96640.91;;;7.57;95.89
77003;BME280;65939;50.060;14.288;2023-03-31T00:02:18;96635.88;;;7.56;96.10
77003;BME280;65939;50.060;14.288;2023-03-31T00:04:22;96635.06;;;7.55;96.85
77003;BME280;65939;50.060;14.288;2023-03-31T00:06:23;96634.25;;;7.55;96.41
77003;BME280;65939;50.060;14.288;2023-03-31T00:08:28;96635.06;;;7.55;96.32
77003;BME280;65939;50.060;14.288;2023-03-31T00:10:31;96633.28;;;7.56;96.93
77003;BME280;65939;50.060;14.288;2023-03-31T00:12:33;96633.28;;;7.56;97.07
77003;BME280;65939;50.060;14.288;2023-03-31T00:14:34;96642.69;;;7.57;96.64
77003;BME280;65939;50.060;14.288;2023-03-31T00:16:36;96633.28;;;7.56;96.62
77003;BME280;65939;50.060;14.288;2023-03-31T00:18:38;96631.50;;;7.56;97.01
77003;BME280;65939;50.060;14.288;2023-03-31T00:20:46;96632.31;;;7.57;96.38
77003;BME280;65939;50.060;14.288;2023-03-31T00:22:47;96632.31;;;7.57;96.69
77003;BME280;65939;50.060;14.288;2023-03-31T00:24:47;96631.50;;;7.56;96.34
77003;BME280;65939;50.060;14.288;2023-03-31T00:26:48;96635.88;;;7.56;96.34
77003;BME280;65939;50.060;14.288;2023-03-31T00:28:49;96628.09;;;7.56;96.32
77003;BME280;65939;50.060;14.288;2023-03-31T00:30:50;96620.47;;;7.54;96.11
77003;BME280;65939;50.060;14.288;2023-03-31T00:32:52;96619.63;;;7.54;96.39
77003;BME280;65939;50.060;14.288;2023-03-31T00:34:52;96613.63;;;7.53;96.36
77003;BME280;65939;50.060;14.288;2023-03-31T00:36:53;96607.63;;;7.53;96.40
77003;BME280;65939;50.060;14.288;2023-03-31T00:39:01;96611.19;;;7.52;97.42
77003;BME280;65939;50.060;14.288;2023-03-31T00:41:03;96607.78;;;7.51;96.66
77003;BME280;65939;50.060;14.288;2023-03-31T00:43:22;96614.59;;;7.52;96.24
77003;BME280;65939;50.060;14.288;2023-03-31T00:45:29;96609.22;;;7.54;97.76
77003;BME280;65939;50.060;14.288;2023-03-31T00:47:30;96603.09;;;7.55;96.98
77003;BME280;65939;50.060;14.288;2023-03-31T00:49:34;96607.31;;;7.56;97.51
77003;BME280;65939;50.060;14.288;2023-03-31T00:51:37;96608.13;;;7.56;97.59
77003;BME280;65939;50.060;14.288;2023-03-31T00:53:39;96596.91;;;7.56;97.46
77003;BME280;65939;50.060;14.288;2023-03-31T00:55:45;96590.75;;;7.57;97.02
77003;BME280;65939;50.060;14.288;2023-03-31T00:57:47;96578.56;;;7.57;97.10
77003;BME280;65939;50.060;14.288;2023-03-31T00:59:52;96574.03;;;7.59;97.43
77003;BME280;65939;50.060;14.288;2023-03-31T01:01:58;96576.34;;;7.62;97.40
77003;BME280;65939;50.060;14.288;2023-03-31T01:04:03;96563.03;;;7.65;97.98
77003;BME280;65939;50.060;14.288;2023-03-31T01:06:07;96569.56;;;7.70;97.53
77003;BME280;65939;50.060;14.288;2023-03-31T01:08:11;96568.44;;;7.72;98.13
77003;BME280;65939;50.060;14.288;2023-03-31T01:10:12;96562.91;;;7.75;97.43
77003;BME280;65939;50.060;14.288;2023-03-31T01:12:16;96565.38;;;7.77;97.41
77003;BME280;65939;50.060;14.288;2023-03-31T01:14:18;96547.19;;;7.77;97.12
77003;BME280;65939;50.060;14.288;2023-03-31T01:16:19;96558.38;;;7.77;96.92
77003;BME280;65939;50.060;14.288;2023-03-31T01:18:20;96555.78;;;7.77;97.24
77003;BME280;65939;50.060;14.288;2023-03-31T01:25:36;96536.63;;;7.78;96.32
77003;BME280;65939;50.060;14.288;2023-03-31T01:28:04;96527.19;;;7.77;97.28
77003;BME280;65939;50.060;14.288;2023-03-31T01:30:10;96515.81;;;7.78;96.96
77003;BME280;65939;50.060;14.288;2023-03-31T01:41:52;96506.91;;;7.81;96.13
77003;BME280;65939;50.060;14.288;2023-03-31T01:44:22;96500.72;;;7.82;96.47
77003;BME280;65939;50.060;14.288;2023-03-31T01:47:01;96501.72;;;7.81;96.86
77003;BME280;65939;50.060;14.288;2023-03-31T01:51:25;96492.31;;;7.80;97.25
77003;BME280;65939;50.060;14.288;2023-03-31T01:53:47;96486.44;;;7.78;96.46
77003;BME280;65939;50.060;14.288;2023-03-31T01:56:14;96488.22;;;7.77;96.07
77003;BME280;65939;50.060;14.288;2023-03-31T01:58:43;96480.59;;;7.76;96.33
77003;BME280;65939;50.060;14.288;2023-03-31T02:00:57;96476.22;;;7.76;96.98
77003;BME280;65939;50.060;14.288;2023-03-31T02:05:25;96479.44;;;7.78;97.40
77003;BME280;65939;50.060;14.288;2023-03-31T02:07:45;96465.50;;;7.79;96.61
77003;BME280;65939;50.060;14.288;2023-03-31T02:09:53;96458.53;;;7.80;96.94
77003;BME280;65939;50.060;14.288;2023-03-31T02:11:57;96454.94;;;7.81;96.96
77003;BME280;65939;50.060;14.288;2023-03-31T02:14:03;96464.34;;;7.82;96.34
77003;BME280;65939;50.060;14.288;2023-03-31T02:16:14;96452.16;;;7.82;96.39
77003;BME280;65939;50.060;14.288;2023-03-31T02:18:24;96459.81;;;7.84;96.72
77003;BME280;65939;50.060;14.288;2023-03-31T02:20:28;96446.84;;;7.84;96.75
77003;BME280;65939;50.060;14.288;2023-03-31T02:22:35;96450.25;;;7.84;96.93
77003;BME280;65939;50.060;14.288;2023-03-31T02:24:40;96449.25;;;7.85;96.46
77003;BME280;65939;50.060;14.288;2023-03-31T02:26:58;96454.31;;;7.87;96.63
77003;BME280;65939;50.060;14.288;2023-03-31T02:29:02;96451.72;;;7.87;96.82
77003;BME280;65939;50.060;14.288;2023-03-31T02:31:26;96455.13;;;7.87;96.63
77003;BME280;65939;50.060;14.288;2023-03-31T02:33:28;96451.72;;;7.87;96.85
77003;BME280;65939;50.060;14.288;2023-03-31T02:35:29;96447.47;;;7.86;97.06
77003;BME280;65939;50.060;14.288;2023-03-31T02:37:31;96444.06;;;7.85;96.85
77003;BME280;65939;50.060;14.288;2023-03-31T02:39:35;96434.47;;;7.86;96.47
77003;BME280;65939;50.060;14.288;2023-03-31T02:41:37;96444.22;;;7.84;96.28
77003;BME280;65939;50.060;14.288;2023-03-31T02:43:38;96444.38;;;7.82;95.85
77003;BME280;65939;50.060;14.288;2023-03-31T02:45:42;96443.75;;;7.80;96.35
77003;BME280;65939;50.060;14.288;2023-03-31T02:47:43;96448.13;;;7.80;95.98
77003;BME280;65939;50.060;14.288;2023-03-31T02:49:48;96448.28;;;7.78;96.59
77003;BME280;65939;50.060;14.288;2023-03-31T03:03:57;96423.56;;;7.74;96.97
77003;BME280;65939;50.060;14.288;2023-03-31T03:18:18;96428.28;;;7.79;96.15
77003;BME280;65939;50.060;14.288;2023-03-31T03:20:20;96425.56;;;7.80;95.80
77003;BME280;65939;50.060;14.288;2023-03-31T03:22:21;96419.22;;;7.83;96.51
77003;BME280;65939;50.060;14.288;2023-03-31T03:24:22;96418.88;;;7.86;96.21
77003;BME280;65939;50.060;14.288;2023-03-31T03:26:23;96410.94;;;7.87;96.46
77003;BME280;65939;50.060;14.288;2023-03-31T03:28:27;96408.97;;;7.89;96.18
77003;BME280;65939;50.060;14.288;2023-03-31T03:30:28;96407.03;;;7.91;96.22
77003;BME280;65939;50.060;14.288;2023-03-31T03:32:29;96399.91;;;7.94;95.64
77003;BME280;65939;50.060;14.288;2023-03-31T03:34:30;96392.75;;;7.96;95.98
77003;BME280;65939;50.060;14.288;2023-03-31T03:36:31;96390.66;;;7.99;95.37
77003;BME280;65939;50.060;14.288;2023-03-31T03:38:32;96386.75;;;8.03;96.10
77003;BME280;65939;50.060;14.288;2023-03-31T03:40:32;96383.69;;;8.08;95.89
77003;BME280;65939;50.060;14.288;2023-03-31T03:42:34;96374.56;;;8.12;94.98
77003;BME280;65939;50.060;14.288;2023-03-31T03:44:34;96378.28;;;8.18;95.66
77003;BME280;65939;50.060;14.288;2023-03-31T03:46:35;96370.16;;;8.21;95.16
77003;BME280;65939;50.060;14.288;2023-03-31T03:48:36;96365.63;;;8.23;94.91
77003;BME280;65939;50.060;14.288;2023-03-31T03:50:36;96366.13;;;8.26;94.68
77003;BME280;65939;50.060;14.288;2023-03-31T03:52:37;96357.81;;;8.31;95.18
77003;BME280;65939;50.060;14.288;2023-03-31T03:54:38;96359.28;;;8.33;95.25
77003;BME280;65939;50.060;14.288;2023-03-31T03:56:39;96362.50;;;8.35;95.39
77003;BME280;65939;50.060;14.288;2023-03-31T03:58:40;96351.97;;;8.37;94.74
77003;BME280;65939;50.060;14.288;2023-03-31T04:00:41;96354.41;;;8.38;94.87
77003;BME280;65939;50.060;14.288;2023-03-31T04:02:42;96357.69;;;8.41;95.10
77003;BME280;65939;50.060;14.288;2023-03-31T04:04:42;96356.69;;;8.42;94.95
77003;BME280;65939;50.060;14.288;2023-03-31T04:06:43;96358.31;;;8.43;95.03
77003;BME280;65939;50.060;14.288;2023-03-31T04:08:44;96350.34;;;8.44;94.71
77003;BME280;65939;50.060;14.288;2023-03-31T04:10:45;96344.97;;;8.46;94.93
77003;BME280;65939;50.060;14.288;2023-03-31T04:12:48;96337.19;;;8.46;95.13
77003;BME280;65939;50.060;14.288;2023-03-31T04:14:48;96339.63;;;8.47;94.78
77003;BME280;65939;50.060;14.288;2023-03-31T04:16:49;96333.44;;;8.48;94.63
77003;BME280;65939;50.060;14.288;2023-03-31T04:18:51;96328.25;;;8.48;94.64
77003;BME280;65939;50.060;14.288;2023-03-31T04:20:53;96331.66;;;8.49;95.03
77003;BME280;65939;50.060;14.288;2023-03-31T04:23:06;96322.03;;;8.49;94.86
77003;BME280;65939;50.060;14.288;2023-03-31T04:25:11;96321.25;;;8.49;94.70
77003;BME280;65939;50.060;14.288;2023-03-31T04:27:15;96319.63;;;8.48;93.87
77003;BME280;65939;50.060;14.288;2023-03-31T04:29:16;96320.44;;;8.48;94.36
77003;BME280;65939;50.060;14.288;2023-03-31T04:31:19;96317.66;;;8.50;94.00
77003;BME280;65939;50.060;14.288;2023-03-31T04:33:24;96311.50;;;8.51;94.46
77003;BME280;65939;50.060;14.288;2023-03-31T04:35:28;96309.84;;;8.50;94.31
77003;BME280;65939;50.060;14.288;2023-03-31T04:37:49;96320.09;;;8.51;93.42
77003;BME280;65939;50.060;14.288;2023-03-31T04:39:51;96318.97;;;8.54;93.67
77003;BME280;65939;50.060;14.288;2023-03-31T04:41:53;96299.78;;;8.55;93.99
77003;BME280;65939;50.060;14.288;2023-03-31T04:43:54;96307.41;;;8.56;93.50
77003;BME280;65939;50.060;14.288;2023-03-31T04:45:55;96306.25;;;8.59;93.90
77003;BME280;65939;50.060;14.288;2023-03-31T04:47:56;96305.13;;;8.61;93.32
77003;BME280;65939;50.060;14.288;2023-03-31T04:49:56;96307.53;;;8.63;93.72
77003;BME280;65939;50.060;14.288;2023-03-31T04:51:57;96302.34;;;8.63;93.68
77003;BME280;65939;50.060;14.288;2023-03-31T04:53:58;96297.94;;;8.63;93.43
77003;BME280;65939;50.060;14.288;2023-03-31T04:55:58;96293.53;;;8.64;93.16
77003;BME280;65939;50.060;14.288;2023-03-31T04:57:59;96290.94;;;8.64;92.64
77003;BME280;65939;50.060;14.288;2023-03-31T05:00:00;96287.53;;;8.63;93.29
77003;BME280;65939;50.060;14.288;2023-03-31T05:02:00;96279.56;;;8.65;93.20
77003;BME280;65939;50.060;14.288;2023-03-31T05:04:05;96294.03;;;8.68;92.87
77003;BME280;65939;50.060;14.288;2023-03-31T05:06:05;96297.09;;;8.71;92.53
77003;BME280;65939;50.060;14.288;2023-03-31T05:08:06;96288.97;;;8.74;92.88
77003;BME280;65939;50.060;14.288;2023-03-31T05:10:07;96275.63;;;8.77;92.59
77003;BME280;65939;50.060;14.288;2023-03-31T05:12:08;96277.88;;;8.80;91.93
77003;BME280;65939;50.060;14.288;2023-03-31T05:14:09;96271.69;;;8.81;91.91
77003;BME280;65939;50.060;14.288;2023-03-31T05:16:12;96266.34;;;8.83;92.01
77003;BME280;65939;50.060;14.288;2023-03-31T05:18:13;96266.34;;;8.83;92.67
77003;BME280;65939;50.060;14.288;2023-03-31T05:20:14;96260.13;;;8.84;92.32
77003;BME280;65939;50.060;14.288;2023-03-31T05:22:15;96247.13;;;8.84;91.70
77003;BME280;65939;50.060;14.288;2023-03-31T05:24:19;96246.94;;;8.85;92.27
77003;BME280;65939;50.060;14.288;2023-03-31T05:26:20;96240.94;;;8.85;91.24
77003;BME280;65939;50.060;14.288;2023-03-31T05:28:24;96239.97;;;8.86;91.20
77003;BME280;65939;50.060;14.288;2023-03-31T05:30:25;96227.91;;;8.85;91.58
77003;BME280;65939;50.060;14.288;2023-03-31T05:32:26;96227.91;;;8.85;91.32
77003;BME280;65939;50.060;14.288;2023-03-31T05:34:27;96210.69;;;8.84;91.42
77003;BME280;65939;50.060;14.288;2023-03-31T05:36:28;96215.09;;;8.83;91.41
77003;BME280;65939;50.060;14.288;2023-03-31T05:38:29;96219.63;;;8.81;90.96
77003;BME280;65939;50.060;14.288;2023-03-31T05:40:30;96218.03;;;8.80;91.27
77003;BME280;65939;50.060;14.288;2023-03-31T05:42:32;96219.00;;;8.79;90.78
77003;BME280;65939;50.060;14.288;2023-03-31T05:44:32;96213.00;;;8.79;91.20
77003;BME280;65939;50.060;14.288;2023-03-31T05:46:33;96204.53;;;8.77;91.30
77003;BME280;65939;50.060;14.288;2023-03-31T05:48:34;96198.53;;;8.76;90.93
77003;BME280;65939;50.060;14.288;2023-03-31T05:50:36;96190.88;;;8.75;90.33
77003;BME280;65939;50.060;14.288;2023-03-31T05:52:37;96188.94;;;8.77;91.06
77003;BME280;65939;50.060;14.288;2023-03-31T05:54:38;96185.19;;;8.79;91.02
77003;BME280;65939;50.060;14.288;2023-03-31T05:56:38;96178.66;;;8.83;91.12
77003;BME280;65939;50.060;14.288;2023-03-31T05:58:39;96181.72;;;8.87;90.67
77003;BME280;65939;50.060;14.288;2023-03-31T06:00:40;96184.59;;;8.92;91.17
77003;BME280;65939;50.060;14.288;2023-03-31T06:02:41;96174.50;;;8.97;90.65
77003;BME280;65939;50.060;14.288;2023-03-31T06:04:41;96180.78;;;9.03;90.81
77003;BME280;65939;50.060;14.288;2023-03-31T06:06:43;96178.31;;;9.09;90.36
77003;BME280;65939;50.060;14.288;2023-03-31T06:08:46;96169.81;;;9.16;89.90
77003;BME280;65939;50.060;14.288;2023-03-31T06:10:46;96164.72;;;9.22;90.25
77003;BME280;65939;50.060;14.288;2023-03-31T06:12:47;96169.03;;;9.30;90.58
77003;BME280;65939;50.060;14.288;2023-03-31T06:14:48;96166.38;;;9.38;90.40
77003;BME280;65939;50.060;14.288;2023-03-31T06:16:48;96170.53;;;9.47;90.30
77003;BME280;65939;50.060;14.288;2023-03-31T06:18:49;96157.06;;;9.58;89.56
77003;BME280;65939;50.060;14.288;2023-03-31T06:20:51;96154.47;;;9.73;89.54
77003;BME280;65939;50.060;14.288;2023-03-31T06:22:52;96163.75;;;9.91;89.75
77003;BME280;65939;50.060;14.288;2023-03-31T06:24:52;96152.16;;;10.08;89.78
77003;BME280;65939;50.060;14.288;2023-03-31T06:26:53;96151.16;;;10.24;89.65
77003;BME280;65939;50.060;14.288;2023-03-31T06:28:54;96150.34;;;10.38;89.04
77003;BME280;65939;50.060;14.288;2023-03-31T06:31:02;96141.25;;;10.49;88.68
77003;BME280;65939;50.060;14.288;2023-03-31T06:33:03;96156.81;;;10.57;88.99
77003;BME280;65939;50.060;14.288;2023-03-31T06:35:04;96150.03;;;10.63;87.63
77003;BME280;65939;50.060;14.288;2023-03-31T06:37:05;96152.28;;;10.66;86.54
77003;BME280;65939;50.060;14.288;2023-03-31T06:39:06;96153.38;;;10.71;86.96
77003;BME280;65939;50.060;14.288;2023-03-31T06:41:08;96156.06;;;10.78;87.10
77003;BME280;65939;50.060;14.288;2023-03-31T06:43:11;96156.28;;;10.83;86.63
77003;BME280;65939;50.060;14.288;2023-03-31T06:45:11;96158.34;;;10.88;86.56
77003;BME280;65939;50.060;14.288;2023-03-31T06:47:12;96149.13;;;10.92;85.84
77003;BME280;65939;50.060;14.288;2023-03-31T06:49:12;96153.81;;;10.96;86.00
77003;BME280;65939;50.060;14.288;2023-03-31T06:51:13;96157.69;;;11.00;85.88
77003;BME280;65939;50.060;14.288;2023-03-31T06:53:14;96150.44;;;11.02;85.57
77003;BME280;65939;50.060;14.288;2023-03-31T06:55:15;96152.53;;;11.07;85.08
77003;BME280;65939;50.060;14.288;2023-03-31T06:57:16;96149.34;;;11.12;84.91
77003;BME280;65939;50.060;14.288;2023-03-31T06:59:17;96147.97;;;11.16;84.68
77003;BME280;65939;50.060;14.288;2023-03-31T07:01:17;96146.59;;;11.20;84.62
77003;BME280;65939;50.060;14.288;2023-03-31T07:03:18;96144.25;;;11.25;85.39
77003;BME280;65939;50.060;14.288;2023-03-31T07:05:22;96143.88;;;11.28;84.05
77003;BME280;65939;50.060;14.288;2023-03-31T07:07:31;96145.09;;;11.32;84.23
77003;BME280;65939;50.060;14.288;2023-03-31T07:09:32;96138.13;;;11.39;84.48
77003;BME280;65939;50.060;14.288;2023-03-31T07:11:33;96138.56;;;11.43;83.70
77003;BME280;65939;50.060;14.288;2023-03-31T07:13:33;96139.97;;;11.45;83.57
77003;BME280;65939;50.060;14.288;2023-03-31T07:15:34;96137.34;;;11.45;83.61
77003;BME280;65939;50.060;14.288;2023-03-31T07:17:35;96140.97;;;11.44;84.10
77003;BME280;65939;50.060;14.288;2023-03-31T07:19:36;96136.75;;;11.43;82.91
77003;BME280;65939;50.060;14.288;2023-03-31T07:21:37;96142.78;;;11.44;83.95
77003;BME280;65939;50.060;14.288;2023-03-31T07:23:38;96136.53;;;11.45;83.71
77003;BME280;65939;50.060;14.288;2023-03-31T07:25:38;96136.97;;;11.48;83.01
77003;BME280;65939;50.060;14.288;2023-03-31T07:27:40;96132.44;;;11.57;83.24
77003;BME280;65939;50.060;14.288;2023-03-31T07:29:41;96125.88;;;11.68;83.26
77003;BME280;65939;50.060;14.288;2023-03-31T07:31:42;96120.53;;;11.83;82.87
77003;BME280;65939;50.060;14.288;2023-03-31T07:33:43;96122.03;;;11.98;82.87
77003;BME280;65939;50.060;14.288;2023-03-31T07:35:43;96118.91;;;12.16;82.70
77003;BME280;65939;50.060;14.288;2023-03-31T07:37:46;96111.50;;;12.27;82.04
77003;BME280;65939;50.060;14.288;2023-03-31T07:39:48;96117.41;;;12.35;82.18
77003;BME280;65939;50.060;14.288;2023-03-31T07:41:48;96113.59;;;12.44;81.28
77003;BME280;65939;50.060;14.288;2023-03-31T07:43:49;96109.19;;;12.52;80.81
77003;BME280;65939;50.060;14.288;2023-03-31T07:45:50;96106.81;;;12.57;81.24
77003;BME280;65939;50.060;14.288;2023-03-31T07:47:51;96105.41;;;12.61;80.90
77003;BME280;65939;50.060;14.288;2023-03-31T07:49:51;96090.91;;;12.65;80.70
77003;BME280;65939;50.060;14.288;2023-03-31T07:51:52;96086.88;;;12.69;81.01
77003;BME280;65939;50.060;14.288;2023-03-31T07:53:53;96081.25;;;12.72;80.36
77003;BME280;65939;50.060;14.288;2023-03-31T07:55:53;96070.38;;;12.75;79.07
77003;BME280;65939;50.060;14.288;2023-03-31T07:57:55;96078.25;;;12.75;79.31
77003;BME280;65939;50.060;14.288;2023-03-31T07:59:55;96080.66;;;12.77;79.30
77003;BME280;65939;50.060;14.288;2023-03-31T08:01:56;96077.84;;;12.78;79.31
77003;BME280;65939;50.060;14.288;2023-03-31T08:03:57;96077.84;;;12.78;78.83
77003;BME280;65939;50.060;14.288;2023-03-31T08:05:58;96083.66;;;12.80;78.23
77003;BME280;65939;50.060;14.288;2023-03-31T08:07:59;96092.16;;;12.82;79.19
77003;BME280;65939;50.060;14.288;2023-03-31T08:10:01;96083.09;;;12.78;77.42
77003;BME280;65939;50.060;14.288;2023-03-31T08:12:03;96089.72;;;12.74;77.89
77003;BME280;65939;50.060;14.288;2023-03-31T08:14:04;96085.47;;;12.73;77.77
77003;BME280;65939;50.060;14.288;2023-03-31T08:16:05;96087.91;;;12.75;78.41
77003;BME280;65939;50.060;14.288;2023-03-31T08:18:05;96088.50;;;12.70;77.68
77003;BME280;65939;50.060;14.288;2023-03-31T08:20:07;96088.28;;;12.65;78.86
77003;BME280;65939;50.060;14.288;2023-03-31T08:22:09;96087.84;;;12.55;77.98
77003;BME280;65939;50.060;14.288;2023-03-31T08:24:10;96077.56;;;12.46;78.64
77003;BME280;65939;50.060;14.288;2023-03-31T08:26:13;96074.94;;;12.40;78.78
77003;BME280;65939;50.060;14.288;2023-03-31T08:28:14;96071.28;;;12.34;79.61
77003;BME280;65939;50.060;14.288;2023-03-31T08:30:17;96068.25;;;12.31;80.29
77003;BME280;65939;50.060;14.288;2023-03-31T08:32:21;96060.22;;;12.32;79.97
77003;BME280;65939;50.060;14.288;2023-03-31T08:34:22;96057.97;;;12.29;81.11
77003;BME280;65939;50.060;14.288;2023-03-31T08:36:24;96068.84;;;12.26;80.48
77003;BME280;65939;50.060;14.288;2023-03-31T08:38:24;96070.88;;;12.24;80.81
77003;BME280;65939;50.060;14.288;2023-03-31T08:40:29;96066.59;;;12.23;80.39
77003;BME280;65939;50.060;14.288;2023-03-31T08:42:39;96065.22;;;12.20;81.32
77003;BME280;65939;50.060;14.288;2023-03-31T08:44:58;96065.59;;;12.17;81.18
77003;BME280;65939;50.060;14.288;2023-03-31T08:47:01;96066.78;;;12.15;81.36
77003;BME280;65939;50.060;14.288;2023-03-31T08:49:05;96062.53;;;12.07;80.21
77003;BME280;65939;50.060;14.288;2023-03-31T08:53:51;96059.06;;;11.93;80.00
77003;BME280;65939;50.060;14.288;2023-03-31T08:55:57;96054.22;;;11.90;80.20
77003;BME280;65939;50.060;14.288;2023-03-31T08:58:16;96049.34;;;11.87;80.67
77003;BME280;65939;50.060;14.288;2023-03-31T09:00:22;96046.16;;;11.85;81.03
77003;BME280;65939;50.060;14.288;2023-03-31T09:08:44;96037.66;;;11.83;80.26
77003;BME280;65939;50.060;14.288;2023-03-31T09:10:55;96033.25;;;11.84;81.98
77003;BME280;65939;50.060;14.288;2023-03-31T09:13:17;96018.75;;;11.81;80.85
77003;BME280;65939;50.060;14.288;2023-03-31T09:15:28;96026.59;;;11.81;81.67
77003;BME280;65939;50.060;14.288;2023-03-31T09:17:40;96006.66;;;11.80;81.52
77003;BME280;65939;50.060;14.288;2023-03-31T09:19:56;96009.25;;;11.80;81.80
77003;BME280;65939;50.060;14.288;2023-03-31T09:21:58;96001.81;;;11.77;81.77
77003;BME280;65939;50.060;14.288;2023-03-31T09:24:09;96012.25;;;11.77;80.90
77003;BME280;65939;50.060;14.288;2023-03-31T09:28:31;96007.44;;;11.81;82.47
77003;BME280;65939;50.060;14.288;2023-03-31T09:30:36;96002.66;;;11.84;82.39
77003;BME280;65939;50.060;14.288;2023-03-31T09:32:38;95999.28;;;11.90;82.85
77003;BME280;65939;50.060;14.288;2023-03-31T09:34:39;96006.16;;;11.98;83.33
77003;BME280;65939;50.060;14.288;2023-03-31T09:36:41;96003.97;;;12.08;82.32
77003;BME280;65939;50.060;14.288;2023-03-31T09:38:43;96002.19;;;12.15;82.44
77003;BME280;65939;50.060;14.288;2023-03-31T09:40:44;95999.38;;;12.23;83.44
77003;BME280;65939;50.060;14.288;2023-03-31T09:42:51;96000.19;;;12.31;83.73
77003;BME280;65939;50.060;14.288;2023-03-31T09:44:53;95992.38;;;12.37;83.92
77003;BME280;65939;50.060;14.288;2023-03-31T09:46:56;95987.13;;;12.44;84.38
77003;BME280;65939;50.060;14.288;2023-03-31T09:49:05;95986.53;;;12.49;83.63
77003;BME280;65939;50.060;14.288;2023-03-31T09:51:17;95981.53;;;12.54;84.65
77003;BME280;65939;50.060;14.288;2023-03-31T09:55:51;95965.44;;;12.70;84.25
77003;BME280;65939;50.060;14.288;2023-03-31T09:57:52;95965.00;;;12.73;84.44
77003;BME280;65939;50.060;14.288;2023-03-31T10:00:05;95955.75;;;12.77;84.37
77003;BME280;65939;50.060;14.288;2023-03-31T10:02:32;95954.34;;;12.81;84.24
77003;BME280;65939;50.060;14.288;2023-03-31T10:04:34;95949.50;;;12.85;84.39
77003;BME280;65939;50.060;14.288;2023-03-31T10:06:39;95946.66;;;12.86;84.03
77003;BME280;65939;50.060;14.288;2023-03-31T10:11:16;95938.41;;;12.96;83.85
77003;BME280;65939;50.060;14.288;2023-03-31T10:13:27;95940.00;;;13.04;83.80
77003;BME280;65939;50.060;14.288;2023-03-31T10:15:29;95933.75;;;13.11;84.44
77003;BME280;65939;50.060;14.288;2023-03-31T10:17:31;95930.69;;;13.21;84.10
77003;BME280;65939;50.060;14.288;2023-03-31T10:19:36;95928.91;;;13.28;83.27
77003;BME280;65939;50.060;14.288;2023-03-31T10:21:39;95913.75;;;13.37;83.10
77003;BME280;65939;50.060;14.288;2023-03-31T10:23:45;95912.28;;;13.48;83.39
77003;BME280;65939;50.060;14.288;2023-03-31T10:25:47;95911.63;;;13.59;83.09
77003;BME280;65939;50.060;14.288;2023-03-31T10:27:51;95912.81;;;13.70;83.04
77003;BME280;65939;50.060;14.288;2023-03-31T10:29:58;95909.16;;;13.77;82.59
77003;BME280;65939;50.060;14.288;2023-03-31T10:32:16;95896.81;;;13.84;82.34
77003;BME280;65939;50.060;14.288;2023-03-31T10:34:18;95888.06;;;13.90;82.41
77003;BME280;65939;50.060;14.288;2023-03-31T10:36:28;95892.91;;;13.94;81.46
77003;BME280;65939;50.060;14.288;2023-03-31T10:38:37;95893.50;;;13.96;81.48
77003;BME280;65939;50.060;14.288;2023-03-31T10:40:54;95887.22;;;13.97;81.24
77003;BME280;65939;50.060;14.288;2023-03-31T10:47:19;95888.53;;;13.87;81.30
77003;BME280;65939;50.060;14.288;2023-03-31T10:51:26;95875.50;;;13.68;80.86
77003;BME280;65939;50.060;14.288;2023-03-31T10:53:27;95885.63;;;13.57;80.47
77003;BME280;65939;50.060;14.288;2023-03-31T10:55:36;95878.81;;;13.50;81.40
77003;BME280;65939;50.060;14.288;2023-03-31T10:57:53;95881.88;;;13.40;80.51
77003;BME280;65939;50.060;14.288;2023-03-31T11:09:19;95886.41;;;13.00;81.97
77003;BME280;65939;50.060;14.288;2023-03-31T11:12:01;95887.63;;;12.90;82.95
77003;BME280;65939;50.060;14.288;2023-03-31T11:23:43;95872.16;;;12.22;82.79
77003;BME280;65939;50.060;14.288;2023-03-31T11:28:26;95880.94;;;11.82;83.21
77003;BME280;65939;50.060;14.288;2023-03-31T11:30:37;95860.00;;;11.68;84.46
77003;BME280;65939;50.060;14.288;2023-03-31T11:37:58;95763.41;;;11.27;84.08
77003;BME280;65939;50.060;14.288;2023-03-31T11:42:17;95735.88;;;11.31;85.16
77003;BME280;65939;50.060;14.288;2023-03-31T11:44:22;95752.59;;;11.43;86.12
77003;BME280;65939;50.060;14.288;2023-03-31T11:46:29;95773.53;;;11.57;85.81
77003;BME280;65939;50.060;14.288;2023-03-31T11:50:43;95793.66;;;11.83;84.19
77003;BME280;65939;50.060;14.288;2023-03-31T11:52:56;95786.25;;;12.00;85.45
77003;BME280;65939;50.060;14.288;2023-03-31T11:59:37;95793.50;;;12.24;81.74
77003;BME280;65939;50.060;14.288;2023-03-31T12:02:09;95786.03;;;12.28;81.78
77003;BME280;65939;50.060;14.288;2023-03-31T12:04:22;95793.06;;;12.27;81.77
77003;BME280;65939;50.060;14.288;2023-03-31T12:06:39;95782.59;;;12.27;80.21
77003;BME280;65939;50.060;14.288;2023-03-31T12:11:08;95788.22;;;12.37;80.74
77003;BME280;65939;50.060;14.288;2023-03-31T12:15:39;95762.41;;;12.54;80.39
77003;BME280;65939;50.060;14.288;2023-03-31T12:17:46;95759.16;;;12.65;81.16
77003;BME280;65939;50.060;14.288;2023-03-31T12:19:55;95756.50;;;12.79;80.68
77003;BME280;65939;50.060;14.288;2023-03-31T12:22:04;95755.81;;;12.97;79.96
77003;BME280;65939;50.060;14.288;2023-03-31T12:24:11;95756.75;;;13.15;81.58
77003;BME280;65939;50.060;14.288;2023-03-31T12:28:36;95748.25;;;13.58;80.53
77003;BME280;65939;50.060;14.288;2023-03-31T12:30:41;95741.69;;;13.74;81.03
77003;BME280;65939;50.060;14.288;2023-03-31T12:40:03;95736.88;;;13.96;78.07
77003;BME280;65939;50.060;14.288;2023-03-31T12:47:39;95724.63;;;14.08;77.95
77003;BME280;65939;50.060;14.288;2023-03-31T12:57:14;95703.06;;;14.50;76.92
77003;BME280;65939;50.060;14.288;2023-03-31T12:59:31;95700.69;;;14.42;76.67
77003;BME280;65939;50.060;14.288;2023-03-31T13:01:33;95697.34;;;14.34;76.84
77003;BME280;65939;50.060;14.288;2023-03-31T13:07:39;95692.88;;;14.17;76.73